sensor_id;sensor_type;location;lat;lon;timestamp;pressure;altitude;pressure_sealevel;temperature;humidity
63285;BME280;49409;55.708;37.522;2022-12-20T00:00:59;100463.19;;;3.33;50.28
63285;BME280;49409;55.708;37.522;2022-12-20T00:03:25;100479.28;;;3.38;51.06
63285;BME280;49409;55.708;37.522;2022-12-20T00:05:50;100467.94;;;3.36;50.88
63285;BME280;49409;55.708;37.522;2022-12-20T00:08:16;100455.03;;;3.21;50.44
63285;BME280;49409;55.708;37.522;2022-12-20T00:10:44;100487.09;;;3.40;51.03
63285;BME280;49409;55.708;37.522;2022-12-20T00:13:10;100481.75;;;3.31;50.73
63285;BME280;49409;55.708;37.522;2022-12-20T00:15:36;100440.06;;;3.15;50.75
63285;BME280;49409;55.708;37.522;2022-12-20T00:18:02;100463.28;;;3.37;50.55
63285;BME280;49409;55.708;37.522;2022-12-20T00:20:28;100449.81;;;3.28;50.18
63285;BME280;49409;55.708;37.522;2022-12-20T00:22:54;100463.09;;;3.30;50.68
63285;BME280;49409;55.708;37.522;2022-12-20T00:25:19;100446.28;;;3.15;51.01
63285;BME280;49409;55.708;37.522;2022-12-20T00:27:48;100469.53;;;3.25;50.24
63285;BME280;49409;55.708;37.522;2022-12-20T00:30:15;100467.72;;;3.42;50.69
63285;BME280;49409;55.708;37.522;2022-12-20T00:32:40;100448.91;;;3.24;50.10
63285;BME280;49409;55.708;37.522;2022-12-20T00:35:06;100467.72;;;3.29;50.75
63285;BME280;49409;55.708;37.522;2022-12-20T00:37:32;100470.69;;;3.24;50.66
63285;BME280;49409;55.708;37.522;2022-12-20T00:39:58;100446.66;;;3.26;50.49
63285;BME280;49409;55.708;37.522;2022-12-20T00:42:23;100447.31;;;3.23;50.39
63285;BME280;49409;55.708;37.522;2022-12-20T00:44:49;100448.91;;;3.24;50.43
63285;BME280;49409;55.708;37.522;2022-12-20T00:47:17;100443.13;;;3.26;50.81
63285;BME280;49409;55.708;37.522;2022-12-20T00:49:43;100427.16;;;3.24;50.84
63285;BME280;49409;55.708;37.522;2022-12-20T00:52:08;100440.75;;;3.36;49.98
63285;BME280;49409;55.708;37.522;2022-12-20T00:54:35;100439.41;;;3.18;50.62
63285;BME280;49409;55.708;37.522;2022-12-20T00:57:00;100417.19;;;3.16;50.37
63285;BME280;49409;55.708;37.522;2022-12-20T00:59:26;100417.19;;;3.16;49.99
63285;BME280;49409;55.708;37.522;2022-12-20T01:01:52;100382.50;;;2.88;50.46
63285;BME280;49409;55.708;37.522;2022-12-20T01:04:17;100400.97;;;3.07;50.22
63285;BME280;49409;55.708;37.522;2022-12-20T01:06:42;100399.28;;;3.03;50.48
63285;BME280;49409;55.708;37.522;2022-12-20T01:09:09;100414.25;;;3.09;50.60
63285;BME280;49409;55.708;37.522;2022-12-20T01:11:36;100421.03;;;3.27;50.02
63285;BME280;49409;55.708;37.522;2022-12-20T01:14:05;100400.84;;;3.04;50.06
63285;BME280;49409;55.708;37.522;2022-12-20T01:16:35;100397.03;;;2.92;50.66
63285;BME280;49409;55.708;37.522;2022-12-20T01:19:01;100390.44;;;2.93;51.02
63285;BME280;49409;55.708;37.522;2022-12-20T01:21:27;100396.66;;;2.94;50.37
63285;BME280;49409;55.708;37.522;2022-12-20T01:23:54;100376.75;;;2.77;50.84
63285;BME280;49409;55.708;37.522;2022-12-20T01:26:23;100392.59;;;2.88;50.74
63285;BME280;49409;55.708;37.522;2022-12-20T01:28:51;100377.75;;;2.85;50.11
63285;BME280;49409;55.708;37.522;2022-12-20T01:31:18;100367.47;;;2.78;50.36
63285;BME280;49409;55.708;37.522;2022-12-20T01:33:46;100368.72;;;2.69;50.79
63285;BME280;49409;55.708;37.522;2022-12-20T01:36:17;100367.69;;;2.61;51.45
63285;BME280;49409;55.708;37.522;2022-12-20T01:38:43;100396.56;;;2.78;50.52
63285;BME280;49409;55.708;37.522;2022-12-20T01:41:17;100385.22;;;2.76;51.09
63285;BME280;49409;55.708;37.522;2022-12-20T01:43:52;100377.97;;;2.68;50.63
63285;BME280;49409;55.708;37.522;2022-12-20T01:46:21;100376.03;;;2.68;50.62
63285;BME280;49409;55.708;37.522;2022-12-20T01:49:25;100385.13;;;2.85;50.51
63285;BME280;49409;55.708;37.522;2022-12-20T01:52:03;100392.94;;;2.74;50.67
63285;BME280;49409;55.708;37.522;2022-12-20T01:54:34;100400.97;;;2.70;51.07
63285;BME280;49409;55.708;37.522;2022-12-20T01:57:06;100351.00;;;2.50;51.03
63285;BME280;49409;55.708;37.522;2022-12-20T01:59:36;100372.09;;;2.53;49.64
63285;BME280;49409;55.708;37.522;2022-12-20T02:02:06;100379.78;;;2.64;50.29
63285;BME280;49409;55.708;37.522;2022-12-20T02:04:34;100355.53;;;2.46;50.29
63285;BME280;49409;55.708;37.522;2022-12-20T02:06:59;100384.31;;;2.60;50.33
63285;BME280;49409;55.708;37.522;2022-12-20T02:09:26;100361.88;;;2.50;50.14
63285;BME280;49409;55.708;37.522;2022-12-20T02:12:22;100376.63;;;2.74;50.36
63285;BME280;49409;55.708;37.522;2022-12-20T02:14:58;100379.34;;;2.62;49.83
63285;BME280;49409;55.708;37.522;2022-12-20T02:23:10;100360.06;;;2.42;49.87
63285;BME280;49409;55.708;37.522;2022-12-20T02:30:52;100339.75;;;2.15;50.00
63285;BME280;49409;55.708;37.522;2022-12-20T02:33:20;100353.22;;;2.11;49.79
63285;BME280;49409;55.708;37.522;2022-12-20T02:35:49;100338.97;;;2.14;49.97
63285;BME280;49409;55.708;37.522;2022-12-20T02:38:32;100340.66;;;2.19;49.78
63285;BME280;49409;55.708;37.522;2022-12-20T02:41:18;100340.13;;;2.26;49.41
63285;BME280;49409;55.708;37.522;2022-12-20T02:43:48;100313.34;;;1.91;49.10
63285;BME280;49409;55.708;37.522;2022-12-20T02:46:33;100311.06;;;1.81;49.55
63285;BME280;49409;55.708;37.522;2022-12-20T02:49:04;100324.19;;;1.91;49.70
63285;BME280;49409;55.708;37.522;2022-12-20T02:51:33;100321.72;;;1.86;49.47
63285;BME280;49409;55.708;37.522;2022-12-20T02:53:59;100313.50;;;1.73;49.28
63285;BME280;49409;55.708;37.522;2022-12-20T02:56:38;100298.56;;;1.67;49.00
63285;BME280;49409;55.708;37.522;2022-12-20T02:59:22;100316.94;;;1.83;49.18
63285;BME280;49409;55.708;37.522;2022-12-20T03:01:51;100303.88;;;1.64;48.84
63285;BME280;49409;55.708;37.522;2022-12-20T03:04:20;100300.63;;;1.70;49.00
63285;BME280;49409;55.708;37.522;2022-12-20T03:07:05;100302.19;;;1.71;49.24
63285;BME280;49409;55.708;37.522;2022-12-20T03:09:35;100281.78;;;1.53;49.07
63285;BME280;49409;55.708;37.522;2022-12-20T03:12:02;100311.69;;;1.65;48.79
63285;BME280;49409;55.708;37.522;2022-12-20T03:14:28;100278.75;;;1.54;48.94
63285;BME280;49409;55.708;37.522;2022-12-20T03:16:53;100285.63;;;1.52;48.58
63285;BME280;49409;55.708;37.522;2022-12-20T03:19:19;100276.97;;;1.58;48.65
63285;BME280;49409;55.708;37.522;2022-12-20T03:21:44;100277.72;;;1.47;48.77
63285;BME280;49409;55.708;37.522;2022-12-20T03:24:11;100257.63;;;1.27;48.67
63285;BME280;49409;55.708;37.522;2022-12-20T03:26:38;100238.06;;;1.21;48.77
63285;BME280;49409;55.708;37.522;2022-12-20T03:29:04;100271.78;;;1.32;49.05
63285;BME280;49409;55.708;37.522;2022-12-20T03:31:29;100249.13;;;1.28;48.33
63285;BME280;49409;55.708;37.522;2022-12-20T03:33:55;100256.16;;;1.29;48.90
63285;BME280;49409;55.708;37.522;2022-12-20T03:36:21;100230.78;;;1.13;48.45
63285;BME280;49409;55.708;37.522;2022-12-20T03:38:48;100259.53;;;1.26;48.17
63285;BME280;49409;55.708;37.522;2022-12-20T03:41:13;100237.28;;;0.99;48.92
63285;BME280;49409;55.708;37.522;2022-12-20T03:43:39;100222.19;;;0.90;47.95
63285;BME280;49409;55.708;37.522;2022-12-20T03:46:05;100227.09;;;0.96;48.22
63285;BME280;49409;55.708;37.522;2022-12-20T03:48:30;100227.22;;;1.00;48.34
63285;BME280;49409;55.708;37.522;2022-12-20T03:50:55;100231.19;;;1.03;48.05
63285;BME280;49409;55.708;37.522;2022-12-20T03:53:21;100211.22;;;0.86;48.10
63285;BME280;49409;55.708;37.522;2022-12-20T03:55:46;100219.88;;;1.01;48.50
63285;BME280;49409;55.708;37.522;2022-12-20T03:58:12;100204.56;;;0.84;47.92
63285;BME280;49409;55.708;37.522;2022-12-20T04:00:37;100208.84;;;0.85;47.63
63285;BME280;49409;55.708;37.522;2022-12-20T04:03:03;100205.56;;;0.79;47.58
63285;BME280;49409;55.708;37.522;2022-12-20T04:05:29;100190.09;;;0.79;47.65
63285;BME280;49409;55.708;37.522;2022-12-20T04:07:54;100219.97;;;0.92;47.35
63285;BME280;49409;55.708;37.522;2022-12-20T04:10:19;100187.25;;;0.76;47.29
63285;BME280;49409;55.708;37.522;2022-12-20T04:12:45;100198.59;;;0.90;47.35
63285;BME280;49409;55.708;37.522;2022-12-20T04:15:10;100169.84;;;0.77;46.89
63285;BME280;49409;55.708;37.522;2022-12-20T04:17:36;100173.97;;;0.83;46.78
63285;BME280;49409;55.708;37.522;2022-12-20T04:20:02;100187.91;;;0.94;46.56
63285;BME280;49409;55.708;37.522;2022-12-20T04:22:50;100187.13;;;0.93;46.27
63285;BME280;49409;55.708;37.522;2022-12-20T04:25:19;100194.84;;;0.83;46.51
63285;BME280;49409;55.708;37.522;2022-12-20T04:27:44;100189.31;;;0.79;46.68
63285;BME280;49409;55.708;37.522;2022-12-20T04:30:10;100169.63;;;0.70;46.89
63285;BME280;49409;55.708;37.522;2022-12-20T04:32:36;100179.84;;;0.85;46.06
63285;BME280;49409;55.708;37.522;2022-12-20T04:35:02;100174.91;;;0.87;46.10
63285;BME280;49409;55.708;37.522;2022-12-20T04:37:29;100197.72;;;0.98;46.23
63285;BME280;49409;55.708;37.522;2022-12-20T04:39:55;100140.47;;;0.67;45.95
63285;BME280;49409;55.708;37.522;2022-12-20T04:42:21;100190.09;;;0.79;46.14
63285;BME280;49409;55.708;37.522;2022-12-20T04:44:47;100180.50;;;0.82;46.55
63285;BME280;49409;55.708;37.522;2022-12-20T04:47:12;100157.84;;;0.66;46.20
63285;BME280;49409;55.708;37.522;2022-12-20T04:49:38;100169.22;;;0.80;46.19
63285;BME280;49409;55.708;37.522;2022-12-20T04:52:04;100154.69;;;0.64;45.71
63285;BME280;49409;55.708;37.522;2022-12-20T04:54:47;100182.41;;;0.61;45.91
63285;BME280;49409;55.708;37.522;2022-12-20T04:57:13;100176.84;;;0.57;45.70
63285;BME280;49409;55.708;37.522;2022-12-20T04:59:39;100159.94;;;0.39;46.04
63285;BME280;49409;55.708;37.522;2022-12-20T05:02:04;100147.78;;;0.45;46.01
63285;BME280;49409;55.708;37.522;2022-12-20T05:04:30;100156.53;;;0.30;45.85
63285;BME280;49409;55.708;37.522;2022-12-20T05:06:55;100183.47;;;0.47;46.05
63285;BME280;49409;55.708;37.522;2022-12-20T05:09:21;100146.63;;;0.34;45.83
63285;BME280;49409;55.708;37.522;2022-12-20T05:11:46;100171.34;;;0.53;45.74
63285;BME280;49409;55.708;37.522;2022-12-20T05:14:12;100164.50;;;0.47;46.01
63285;BME280;49409;55.708;37.522;2022-12-20T05:16:37;100138.28;;;0.39;45.66
63285;BME280;49409;55.708;37.522;2022-12-20T05:19:03;100153.81;;;0.51;45.66
63285;BME280;49409;55.708;37.522;2022-12-20T05:21:29;100153.31;;;0.57;45.54
63285;BME280;49409;55.708;37.522;2022-12-20T05:24:14;100157.59;;;0.58;45.54
63285;BME280;49409;55.708;37.522;2022-12-20T05:26:58;100147.66;;;0.63;45.09
63285;BME280;49409;55.708;37.522;2022-12-20T05:29:24;100144.81;;;0.59;45.10
63285;BME280;49409;55.708;37.522;2022-12-20T05:31:50;100149.00;;;0.56;44.81
63285;BME280;49409;55.708;37.522;2022-12-20T05:34:15;100121.78;;;0.32;45.29
63285;BME280;49409;55.708;37.522;2022-12-20T05:36:41;100141.28;;;0.46;45.49
63285;BME280;49409;55.708;37.522;2022-12-20T05:39:07;100135.19;;;0.49;45.10
63285;BME280;49409;55.708;37.522;2022-12-20T05:41:32;100111.22;;;0.39;45.29
63285;BME280;49409;55.708;37.522;2022-12-20T05:43:58;100128.72;;;0.63;44.99
63285;BME280;49409;55.708;37.522;2022-12-20T05:46:23;100100.44;;;0.51;44.85
63285;BME280;49409;55.708;37.522;2022-12-20T05:48:49;100108.19;;;0.62;44.57
63285;BME280;49409;55.708;37.522;2022-12-20T05:51:14;100109.75;;;0.63;44.38
63285;BME280;49409;55.708;37.522;2022-12-20T05:53:40;100093.13;;;0.52;44.39
63285;BME280;49409;55.708;37.522;2022-12-20T05:56:06;100087.78;;;0.43;44.44
63285;BME280;49409;55.708;37.522;2022-12-20T05:58:32;100087.31;;;0.41;44.74
63285;BME280;49409;55.708;37.522;2022-12-20T06:01:05;100077.16;;;0.38;44.81
63285;BME280;49409;55.708;37.522;2022-12-20T06:03:31;100104.47;;;0.45;44.68
63285;BME280;49409;55.708;37.522;2022-12-20T06:05:56;100099.06;;;0.45;44.73
63285;BME280;49409;55.708;37.522;2022-12-20T06:08:22;100096.81;;;0.47;44.45
63285;BME280;49409;55.708;37.522;2022-12-20T06:10:49;100091.81;;;0.37;44.32
63285;BME280;49409;55.708;37.522;2022-12-20T06:13:15;100106.22;;;0.50;44.44
63285;BME280;49409;55.708;37.522;2022-12-20T06:15:41;100104.75;;;0.52;44.39
63285;BME280;49409;55.708;37.522;2022-12-20T06:18:06;100100.25;;;0.56;44.27
63285;BME280;49409;55.708;37.522;2022-12-20T06:20:33;100077.75;;;0.44;44.01
63285;BME280;49409;55.708;37.522;2022-12-20T06:22:59;100078.84;;;0.43;44.33
63285;BME280;49409;55.708;37.522;2022-12-20T06:25:25;100097.47;;;0.65;43.97
63285;BME280;49409;55.708;37.522;2022-12-20T06:27:51;100099.06;;;0.66;44.01
63285;BME280;49409;55.708;37.522;2022-12-20T06:30:17;100093.50;;;0.63;44.06
63285;BME280;49409;55.708;37.522;2022-12-20T06:32:43;100034.63;;;0.17;43.81
63285;BME280;49409;55.708;37.522;2022-12-20T06:35:08;100084.00;;;0.56;43.73
63285;BME280;49409;55.708;37.522;2022-12-20T06:37:34;100057.47;;;0.29;43.96
63285;BME280;49409;55.708;37.522;2022-12-20T06:40:00;100081.47;;;0.51;43.75
63285;BME280;49409;55.708;37.522;2022-12-20T06:42:26;100058.91;;;0.47;43.84
63285;BME280;49409;55.708;37.522;2022-12-20T06:44:52;100073.63;;;0.58;43.62
63285;BME280;49409;55.708;37.522;2022-12-20T06:47:18;100039.41;;;0.21;43.99
63285;BME280;49409;55.708;37.522;2022-12-20T06:49:43;100039.44;;;0.33;43.53
63285;BME280;49409;55.708;37.522;2022-12-20T06:52:09;100034.81;;;0.33;43.62
63285;BME280;49409;55.708;37.522;2022-12-20T06:54:34;100038.53;;;0.29;43.92
63285;BME280;49409;55.708;37.522;2022-12-20T06:57:00;100048.53;;;0.49;43.76
63285;BME280;49409;55.708;37.522;2022-12-20T06:59:25;100051.00;;;0.42;43.42
63285;BME280;49409;55.708;37.522;2022-12-20T07:01:51;100019.03;;;0.35;43.45
63285;BME280;49409;55.708;37.522;2022-12-20T07:04:16;100032.94;;;0.34;43.28
63285;BME280;49409;55.708;37.522;2022-12-20T07:06:42;100037.00;;;0.40;43.56
63285;BME280;49409;55.708;37.522;2022-12-20T07:09:07;100018.06;;;0.40;43.35
63285;BME280;49409;55.708;37.522;2022-12-20T07:11:33;100012.69;;;0.31;43.39
63285;BME280;49409;55.708;37.522;2022-12-20T07:13:59;99984.03;;;0.18;43.14
63285;BME280;49409;55.708;37.522;2022-12-20T07:16:24;99987.06;;;0.16;43.37
63285;BME280;49409;55.708;37.522;2022-12-20T07:18:51;99983.66;;;0.19;42.95
63285;BME280;49409;55.708;37.522;2022-12-20T07:21:17;99999.53;;;0.30;43.32
63285;BME280;49409;55.708;37.522;2022-12-20T07:23:44;99990.00;;;0.24;43.11
63285;BME280;49409;55.708;37.522;2022-12-20T07:26:10;99975.22;;;0.21;43.36
63285;BME280;49409;55.708;37.522;2022-12-20T07:28:36;99936.84;;;0.07;42.89
63285;BME280;49409;55.708;37.522;2022-12-20T07:31:02;99968.06;;;0.37;42.77
63285;BME280;49409;55.708;37.522;2022-12-20T07:33:28;99956.59;;;0.19;42.75
63285;BME280;49409;55.708;37.522;2022-12-20T07:36:08;99954.53;;;0.37;43.29
63285;BME280;49409;55.708;37.522;2022-12-20T07:38:34;99951.63;;;0.43;43.08
63285;BME280;49409;55.708;37.522;2022-12-20T07:41:08;99948.13;;;0.42;42.05
63285;BME280;49409;55.708;37.522;2022-12-20T07:43:34;99943.38;;;0.39;42.64
63285;BME280;49409;55.708;37.522;2022-12-20T07:46:00;99912.22;;;0.33;43.04
63285;BME280;49409;55.708;37.522;2022-12-20T07:48:25;99894.50;;;0.35;42.48
63285;BME280;49409;55.708;37.522;2022-12-20T07:50:52;99924.44;;;0.51;42.21
63285;BME280;49409;55.708;37.522;2022-12-20T07:53:20;99906.44;;;0.55;42.73
63285;BME280;49409;55.708;37.522;2022-12-20T07:55:47;99908.91;;;0.61;42.18
63285;BME280;49409;55.708;37.522;2022-12-20T07:58:14;99901.94;;;0.72;42.39
63285;BME280;49409;55.708;37.522;2022-12-20T08:00:41;99876.84;;;0.63;42.15
63285;BME280;49409;55.708;37.522;2022-12-20T08:03:14;99888.94;;;0.77;42.24
63285;BME280;49409;55.708;37.522;2022-12-20T08:05:46;99859.38;;;0.72;42.06
63285;BME280;49409;55.708;37.522;2022-12-20T08:08:13;99868.50;;;0.80;41.61
63285;BME280;49409;55.708;37.522;2022-12-20T08:10:39;99880.50;;;0.79;41.33
63285;BME280;49409;55.708;37.522;2022-12-20T08:13:05;99867.16;;;0.74;41.29
63285;BME280;49409;55.708;37.522;2022-12-20T08:15:33;99854.72;;;0.73;41.11
63285;BME280;49409;55.708;37.522;2022-12-20T08:17:59;99851.16;;;0.81;40.99
63285;BME280;49409;55.708;37.522;2022-12-20T08:20:24;99830.38;;;0.61;41.07
63285;BME280;49409;55.708;37.522;2022-12-20T08:22:50;99865.81;;;0.55;41.57
63285;BME280;49409;55.708;37.522;2022-12-20T08:25:16;99852.94;;;0.52;41.72
63285;BME280;49409;55.708;37.522;2022-12-20T08:27:41;99858.13;;;0.82;41.34
63285;BME280;49409;55.708;37.522;2022-12-20T08:30:07;99855.31;;;0.66;40.78
63285;BME280;49409;55.708;37.522;2022-12-20T08:32:34;99840.28;;;0.56;41.46
63285;BME280;49409;55.708;37.522;2022-12-20T08:35:00;99851.56;;;0.71;40.99
63285;BME280;49409;55.708;37.522;2022-12-20T08:37:26;99845.47;;;0.86;40.97
63285;BME280;49409;55.708;37.522;2022-12-20T08:39:51;99826.63;;;0.65;40.90
63285;BME280;49409;55.708;37.522;2022-12-20T08:42:17;99843.25;;;0.76;41.04
63285;BME280;49409;55.708;37.522;2022-12-20T08:44:42;99818.63;;;0.69;41.07
63285;BME280;49409;55.708;37.522;2022-12-20T08:47:08;99806.88;;;0.77;40.71
63285;BME280;49409;55.708;37.522;2022-12-20T08:49:35;99825.19;;;0.80;40.85
63285;BME280;49409;55.708;37.522;2022-12-20T08:52:00;99826.78;;;0.81;40.92
63285;BME280;49409;55.708;37.522;2022-12-20T08:54:26;99788.16;;;0.72;40.91
63285;BME280;49409;55.708;37.522;2022-12-20T08:56:51;99812.97;;;0.86;41.06
63285;BME280;49409;55.708;37.522;2022-12-20T08:59:17;99811.38;;;0.97;40.98
63285;BME280;49409;55.708;37.522;2022-12-20T09:01:42;99781.81;;;0.92;40.79
63285;BME280;49409;55.708;37.522;2022-12-20T09:04:09;99798.97;;;1.09;40.70
63285;BME280;49409;55.708;37.522;2022-12-20T09:06:35;99762.13;;;1.08;40.50
63285;BME280;49409;55.708;37.522;2022-12-20T09:09:01;99770.59;;;1.06;40.60
63285;BME280;49409;55.708;37.522;2022-12-20T09:14:48;99759.38;;;1.20;40.11
63285;BME280;49409;55.708;37.522;2022-12-20T09:17:13;99779.22;;;1.36;40.46
63285;BME280;49409;55.708;37.522;2022-12-20T09:19:39;99772.41;;;1.43;40.17
63285;BME280;49409;55.708;37.522;2022-12-20T09:22:04;99776.28;;;1.57;40.55
63285;BME280;49409;55.708;37.522;2022-12-20T09:24:30;99709.47;;;1.21;39.94
63285;BME280;49409;55.708;37.522;2022-12-20T09:26:55;99701.34;;;1.21;39.95
63285;BME280;49409;55.708;37.522;2022-12-20T09:29:21;99736.47;;;1.46;39.81
63285;BME280;49409;55.708;37.522;2022-12-20T09:31:48;99757.81;;;1.47;40.16
63285;BME280;49409;55.708;37.522;2022-12-20T09:34:14;99748.63;;;1.52;39.98
63285;BME280;49409;55.708;37.522;2022-12-20T09:36:39;99701.94;;;1.30;40.29
63285;BME280;49409;55.708;37.522;2022-12-20T09:39:05;99737.72;;;1.48;39.89
63285;BME280;49409;55.708;37.522;2022-12-20T09:41:31;99741.13;;;1.61;40.15
63285;BME280;49409;55.708;37.522;2022-12-20T09:43:59;99713.53;;;1.43;39.72
63285;BME280;49409;55.708;37.522;2022-12-20T09:46:25;99724.63;;;1.66;39.87
63285;BME280;49409;55.708;37.522;2022-12-20T09:48:52;99705.69;;;1.54;39.51
63285;BME280;49409;55.708;37.522;2022-12-20T09:56:59;99686.03;;;1.73;39.73
63285;BME280;49409;55.708;37.522;2022-12-20T09:59:27;99702.31;;;1.89;39.65
63285;BME280;49409;55.708;37.522;2022-12-20T10:01:52;99687.88;;;1.85;39.50
63285;BME280;49409;55.708;37.522;2022-12-20T10:04:22;99692.31;;;1.93;39.57
63285;BME280;49409;55.708;37.522;2022-12-20T10:12:23;99673.25;;;1.73;40.01
63285;BME280;49409;55.708;37.522;2022-12-20T10:20:35;99656.63;;;1.59;40.83
63285;BME280;49409;55.708;37.522;2022-12-20T10:23:18;99643.13;;;1.47;40.10
63285;BME280;49409;55.708;37.522;2022-12-20T10:25:50;99641.13;;;1.44;40.38
63285;BME280;49409;55.708;37.522;2022-12-20T10:28:16;99620.03;;;1.21;40.23
63285;BME280;49409;55.708;37.522;2022-12-20T10:30:44;99618.25;;;1.13;40.08
63285;BME280;49409;55.708;37.522;2022-12-20T10:33:30;99650.66;;;1.37;40.59
63285;BME280;49409;55.708;37.522;2022-12-20T10:36:26;99646.09;;;1.42;40.38
63285;BME280;49409;55.708;37.522;2022-12-20T10:38:57;99616.09;;;1.18;40.05
63285;BME280;49409;55.708;37.522;2022-12-20T10:42:09;99615.13;;;1.11;40.09
63285;BME280;49409;55.708;37.522;2022-12-20T10:46:43;99614.09;;;1.31;40.48
63285;BME280;49409;55.708;37.522;2022-12-20T10:52:01;99596.94;;;1.27;39.98
63285;BME280;49409;55.708;37.522;2022-12-20T10:54:38;99601.16;;;1.41;40.00
63285;BME280;49409;55.708;37.522;2022-12-20T10:57:26;99601.50;;;1.55;40.80
63285;BME280;49409;55.708;37.522;2022-12-20T10:59:59;99596.59;;;1.45;40.13
63285;BME280;49409;55.708;37.522;2022-12-20T11:02:33;99591.34;;;1.52;40.09
63285;BME280;49409;55.708;37.522;2022-12-20T11:07:32;99568.44;;;1.49;40.31
63285;BME280;49409;55.708;37.522;2022-12-20T11:10:02;99595.00;;;1.75;40.12
63285;BME280;49409;55.708;37.522;2022-12-20T11:12:28;99548.66;;;1.49;40.21
63285;BME280;49409;55.708;37.522;2022-12-20T11:17:46;99581.72;;;1.70;39.65
63285;BME280;49409;55.708;37.522;2022-12-20T11:20:24;99587.94;;;1.71;39.91
63285;BME280;49409;55.708;37.522;2022-12-20T11:27:56;99588.56;;;1.64;40.46
63285;BME280;49409;55.708;37.522;2022-12-20T11:31:33;99585.56;;;1.69;41.25
63285;BME280;49409;55.708;37.522;2022-12-20T11:37:17;99583.28;;;1.55;40.91
63285;BME280;49409;55.708;37.522;2022-12-20T11:40:03;99575.78;;;1.49;40.75
63285;BME280;49409;55.708;37.522;2022-12-20T11:48:27;99561.69;;;1.27;40.89
63285;BME280;49409;55.708;37.522;2022-12-20T11:51:09;99542.63;;;1.08;40.94
63285;BME280;49409;55.708;37.522;2022-12-20T11:53:49;99541.94;;;1.11;41.04
63285;BME280;49409;55.708;37.522;2022-12-20T11:56:32;99561.78;;;1.31;41.38
63285;BME280;49409;55.708;37.522;2022-12-20T12:01:45;99544.28;;;1.12;40.69
63285;BME280;49409;55.708;37.522;2022-12-20T12:04:24;99563.44;;;1.19;40.83
63285;BME280;49409;55.708;37.522;2022-12-20T12:07:11;99541.56;;;1.12;40.98
63285;BME280;49409;55.708;37.522;2022-12-20T12:17:44;99554.63;;;0.78;41.55
63285;BME280;49409;55.708;37.522;2022-12-20T12:20:24;99535.16;;;0.73;41.33
63285;BME280;49409;55.708;37.522;2022-12-20T12:22:59;99552.28;;;0.77;41.45
63285;BME280;49409;55.708;37.522;2022-12-20T12:25:26;99519.25;;;0.43;41.26
63285;BME280;49409;55.708;37.522;2022-12-20T12:27:52;99548.50;;;0.66;41.24
63285;BME280;49409;55.708;37.522;2022-12-20T12:30:17;99535.94;;;0.45;41.51
63285;BME280;49409;55.708;37.522;2022-12-20T12:32:52;99541.91;;;0.51;41.83
63285;BME280;49409;55.708;37.522;2022-12-20T12:46:21;99536.28;;;0.15;42.05
63285;BME280;49409;55.708;37.522;2022-12-20T12:48:56;99551.25;;;0.25;41.93
63285;BME280;49409;55.708;37.522;2022-12-20T12:51:32;99484.06;;;-0.13;41.89
63285;BME280;49409;55.708;37.522;2022-12-20T12:54:21;99537.59;;;0.22;42.19
63285;BME280;49409;55.708;37.522;2022-12-20T12:56:49;99550.91;;;0.27;41.97
63285;BME280;49409;55.708;37.522;2022-12-20T12:59:39;99535.03;;;0.13;42.09
63285;BME280;49409;55.708;37.522;2022-12-20T13:17:55;99527.97;;;0.08;42.14
63285;BME280;49409;55.708;37.522;2022-12-20T13:25:32;99525.72;;;0.10;42.21
63285;BME280;49409;55.708;37.522;2022-12-20T13:33:47;99541.78;;;0.19;42.66
63285;BME280;49409;55.708;37.522;2022-12-20T13:41:20;99533.94;;;0.14;42.91
63285;BME280;49409;55.708;37.522;2022-12-20T13:43:49;99527.53;;;-0.06;42.48
63285;BME280;49409;55.708;37.522;2022-12-20T13:46:27;99488.13;;;-0.32;43.05
63285;BME280;49409;55.708;37.522;2022-12-20T13:49:01;99541.84;;;0.07;42.97
63285;BME280;49409;55.708;37.522;2022-12-20T13:51:28;99547.13;;;0.03;43.21
63285;BME280;49409;55.708;37.522;2022-12-20T13:53:56;99540.16;;;0.02;42.76
63285;BME280;49409;55.708;37.522;2022-12-20T13:58:52;99522.34;;;0.01;42.68
63285;BME280;49409;55.708;37.522;2022-12-20T14:01:21;99545.09;;;0.12;43.00
63285;BME280;49409;55.708;37.522;2022-12-20T14:03:48;99519.41;;;0.06;42.68
63285;BME280;49409;55.708;37.522;2022-12-20T14:06:14;99524.13;;;0.09;43.01
63285;BME280;49409;55.708;37.522;2022-12-20T14:08:45;99516.88;;;-0.27;43.47
63285;BME280;49409;55.708;37.522;2022-12-20T14:11:21;99539.69;;;0.12;43.09
63285;BME280;49409;55.708;37.522;2022-12-20T14:14:01;99522.38;;;-0.11;43.07
63285;BME280;49409;55.708;37.522;2022-12-20T14:16:29;99527.31;;;-0.01;43.01
63285;BME280;49409;55.708;37.522;2022-12-20T14:19:05;99534.50;;;0.07;43.12
63285;BME280;49409;55.708;37.522;2022-12-20T14:21:36;99540.81;;;-0.01;43.37
63285;BME280;49409;55.708;37.522;2022-12-20T14:24:04;99514.47;;;-0.16;43.06
63285;BME280;49409;55.708;37.522;2022-12-20T14:26:39;99495.66;;;-0.13;43.68
63285;BME280;49409;55.708;37.522;2022-12-20T14:29:10;99517.81;;;0.05;43.37
63285;BME280;49409;55.708;37.522;2022-12-20T14:31:43;99513.88;;;0.03;43.38
63285;BME280;49409;55.708;37.522;2022-12-20T14:36:38;99514.25;;;-0.11;43.45
63285;BME280;49409;55.708;37.522;2022-12-20T14:41:58;99492.09;;;-0.29;43.66
63285;BME280;49409;55.708;37.522;2022-12-20T14:44:25;99495.59;;;-0.29;43.74
63285;BME280;49409;55.708;37.522;2022-12-20T14:46:53;99511.34;;;-0.31;43.96
63285;BME280;49409;55.708;37.522;2022-12-20T14:49:59;99521.94;;;-0.13;43.61
63285;BME280;49409;55.708;37.522;2022-12-20T14:52:33;99513.59;;;-0.21;43.68
63285;BME280;49409;55.708;37.522;2022-12-20T14:55:05;99511.78;;;-0.16;43.59
63285;BME280;49409;55.708;37.522;2022-12-20T15:08:27;99523.28;;;-0.19;43.37
63285;BME280;49409;55.708;37.522;2022-12-20T15:13:45;99481.41;;;-0.50;44.00
63285;BME280;49409;55.708;37.522;2022-12-20T15:16:24;99529.13;;;-0.30;44.06